Pagina principale
METAR-TAF:

METAR-TAF

Aeroporti :

Siirt, Turchia

latitudine: 37-58-41N, longitudine: 41-50-21E, altezza: 610 m

Osservazione

Il bollettino è stato emesso 15 ore e 12 minuti fa, alle 12:50 UTC
Vento 9 kt da ovest/sud-ovest
Temperature 30°C
Umidità 17%
Pressione 1019 hPa
Visibilità 10 km o più
nessuna nube inferiore a 1500 m e nessun cumulonembo

METAR: LTCL 231250Z 25009KT CAVOK 30/02 Q1019

Ora: 07:02 (04:02 UTC)

Previsione

Il bollettino è stato emesso 2 ore e 22 minuti fa, alle 01:40 UTC
Previsione valida dal 24 alle 03 UTC al 24 alle 12 UTC
Vento 7 kt da nord-est
Visibilità 10 km o più
nessuna nube inferiore a 1500 m e nessun cumulonembo

TAF: LTCL 240140Z 2403/2412 04007KT CAVOK

Osservazioni e previsioni meteorologiche di più di 4000 aeroporti (messaggi METAR e TAF).

Le stazioni disponibili sono rappresentate dai dischi gialli e rossi sulla carta.

Puntare il mouse per vedere il nome della stazione.

Clicca sopra per visualizzare le osservazioni e previsioni meteorologiche.

Per cambiare la mappa : fare clic sui pulsanti verdi con una croce nera per ingrandire, il pulsante verde con un trattino per diminuire, o sulla freccia verde per le mappe adiacenti.


METAR-TAF: